This is the latest recevied weather packets stored in our database for station/object K7CTM. If no packets are shown the sender has not sent any weather packets the latest 10 day(s).
| Time | Temp. | Humidity | Pressure | Rain* | Wind** | Luminosity | Snow |
|---|---|---|---|---|---|---|---|
| 1777389674 | 2.78° C | 71% | 1026.8 hPa | 0 mm | - | 426 W/m² | - |
| 1777389369 | 2.78° C | 77% | 1026.8 hPa | 0 mm | - | 438 W/m² | - |
| 1777389068 | 1.67° C | 82% | 1026.6 hPa | 0 mm | - | 427 W/m² | - |
| 1777388765 | 2.22° C | 77% | 1026.8 hPa | 0 mm | - | 407 W/m² | - |
| 1777388462 | 1.11° C | 79% | 1026.8 hPa | 0 mm | - | 375 W/m² | - |
| 1777388161 | 0° C | 86% | 1026.6 hPa | 0 mm | - | 310 W/m² | - |
| 1777387857 | -1.11° C | 89% | 1026.8 hPa | 0 mm | - | 305 W/m² | - |
| 1777387554 | -1.11° C | 88% | 1026.6 hPa | 0 mm | - | 118 W/m² | - |
| 1777387250 | -1.11° C | 86% | 1026.5 hPa | 0 mm | - | 97 W/m² | - |
| 1777386945 | -1.11° C | 88% | 1026.4 hPa | 0 mm | - | 163 W/m² | - |
| 1777386643 | -1.67° C | 90% | 1026.3 hPa | 0 mm | - | 103 W/m² | - |
| 1777386339 | -2.22° C | 89% | 1026.5 hPa | 0 mm | - | 207 W/m² | - |
| 1777386037 | -2.22° C | 90% | 1026.4 hPa | 0 mm | - | 80 W/m² | - |
| 1777385733 | -2.78° C | 91% | 1026.1 hPa | 0 mm | - | 98 W/m² | - |
| 1777385431 | -2.78° C | 91% | 1026.3 hPa | 0 mm | - | 110 W/m² | - |
| 1777385127 | -2.78° C | 92% | 1026.2 hPa | 0 mm | - | 87 W/m² | - |
| 1777384823 | -3.33° C | 92% | 1026.3 hPa | 0 mm | - | 70 W/m² | - |
| 1777384520 | -3.33° C | 93% | 1026.2 hPa | 0 mm | - | 67 W/m² | - |
| 1777384215 | -3.33° C | 93% | 1026.2 hPa | 0 mm | - | 55 W/m² | - |
| 1777383911 | -3.33° C | 93% | 1026 hPa | 0 mm | - | 38 W/m² | - |
| 1777383607 | -3.33° C | 93% | 1026 hPa | 0 mm | - | 31 W/m² | - |
| 1777383304 | -3.33° C | 93% | 1026.1 hPa | 0 mm | - | 29 W/m² | - |
| 1777383000 | -3.33° C | 93% | 1025.6 hPa | 0 mm | - | 32 W/m² | - |
| 1777382696 | -3.33° C | 93% | 1026 hPa | 0 mm | - | 35 W/m² | - |
| 1777382391 | -3.33° C | 93% | 1025.7 hPa | 0 mm | - | 40 W/m² | - |
* Rain latest hour (hover to see other rain measurements)
** Current wind speed in m/s (hover to see current wind gust speed)